createdAt,value
2018-03-01T00:01:40.622Z,59.72
2018-03-01T00:04:34.241Z,58.47
2018-03-01T00:07:05.141Z,59.50
2018-03-01T00:09:42.112Z,59.58
2018-03-01T00:12:14.891Z,66.85
2018-03-01T00:14:45.404Z,62.47
2018-03-01T00:17:15.848Z,66.93
2018-03-01T00:19:46.148Z,74.00
2018-03-01T00:22:35.261Z,74.37
2018-03-01T00:25:05.428Z,72.82
2018-03-01T00:27:35.521Z,72.57
2018-03-01T00:30:10.088Z,64.40
2018-03-01T00:32:40.975Z,64.32
2018-03-01T00:35:20.377Z,58.08
2018-03-01T00:37:50.992Z,64.37
2018-03-01T00:40:25.578Z,58.80
2018-03-01T00:42:58.073Z,62.90
2018-03-01T00:45:28.525Z,64.03
2018-03-01T00:47:59.824Z,57.60
2018-03-01T00:50:30.218Z,58.05
2018-03-01T00:53:01.535Z,55.90
2018-03-01T00:55:31.933Z,58.63
2018-03-01T00:58:02.358Z,58.37
2018-03-01T01:00:32.689Z,63.00
2018-03-01T01:03:03.006Z,60.58
2018-03-01T01:05:33.781Z,62.58
2018-03-01T01:08:05.112Z,69.05
2018-03-01T01:10:36.368Z,64.30
2018-03-01T01:13:26.219Z,68.82
2018-03-01T01:15:56.534Z,59.13
2018-03-01T01:18:27.061Z,67.72
2018-03-01T01:20:58.336Z,74.53
2018-03-01T01:23:29.289Z,68.25
2018-03-01T01:25:59.799Z,74.12
2018-03-01T01:28:30.197Z,67.37
2018-03-01T01:31:00.956Z,66.03
2018-03-01T01:33:33.025Z,57.10
2018-03-01T01:36:03.448Z,52.42
2018-03-01T01:38:34.256Z,60.40
2018-03-01T01:41:04.754Z,59.95
2018-03-01T01:43:34.840Z,60.70
2018-03-01T01:46:05.824Z,66.27
2018-03-01T01:48:35.935Z,62.38
2018-03-01T01:51:06.947Z,60.23
2018-03-01T01:53:37.557Z,64.05
2018-03-01T01:56:07.874Z,74.45
2018-03-01T01:58:38.745Z,56.22
2018-03-01T02:01:09.133Z,63.60
2018-03-01T02:03:40.288Z,58.00
2018-03-01T02:06:10.764Z,65.03
2018-03-01T02:08:41.246Z,59.58
2018-03-01T02:11:11.664Z,69.65
2018-03-01T02:13:42.300Z,58.55
2018-03-01T02:16:12.717Z,61.55
2018-03-01T02:18:43.048Z,64.43
2018-03-01T02:21:13.579Z,72.07
2018-03-01T02:23:44.134Z,66.70
2018-03-01T02:26:14.418Z,73.07
2018-03-01T02:28:45.036Z,67.78
2018-03-01T02:31:16.530Z,68.05
2018-03-01T02:33:47.612Z,64.68
2018-03-01T02:36:26.599Z,68.87
2018-03-01T02:38:57.522Z,65.95
2018-03-01T02:41:27.874Z,66.30
2018-03-01T02:43:58.570Z,62.60
2018-03-01T02:46:30.197Z,71.15
2018-03-01T02:49:01.501Z,60.72
2018-03-01T02:51:31.792Z,65.05
2018-03-01T02:54:03.648Z,62.42
2018-03-01T02:56:33.858Z,59.40
2018-03-01T02:59:04.240Z,59.30
2018-03-01T03:01:34.908Z,59.25
2018-03-01T03:04:05.271Z,61.60
2018-03-01T03:06:35.785Z,65.10
2018-03-01T03:09:06.518Z,63.25
2018-03-01T03:11:39.182Z,66.82
2018-03-01T03:14:11.532Z,69.93
2018-03-01T03:16:42.925Z,72.95
2018-03-01T03:19:14.959Z,67.78
2018-03-01T03:21:47.322Z,67.47
2018-03-01T03:24:17.910Z,69.90
2018-03-01T03:26:49.306Z,71.30
2018-03-01T03:29:20.043Z,65.72
2018-03-01T03:31:52.198Z,71.40
2018-03-01T03:34:24.626Z,65.20
2018-03-01T03:36:56.330Z,64.82
2018-03-01T03:39:27.738Z,60.90
2018-03-01T03:41:58.436Z,58.40
2018-03-01T03:44:28.892Z,56.97
2018-03-01T03:47:00.318Z,58.42
2018-03-01T03:49:31.668Z,58.70
2018-03-01T03:52:03.044Z,62.42
2018-03-01T03:54:35.921Z,56.95
2018-03-01T03:57:07.938Z,55.90
2018-03-01T03:59:40.510Z,57.45
2018-03-01T04:02:11.943Z,67.32
2018-03-01T04:04:42.546Z,61.43
2018-03-01T04:07:13.981Z,64.25
2018-03-01T04:09:45.375Z,64.95
2018-03-01T04:12:16.758Z,68.23
2018-03-01T04:14:47.765Z,70.30
2018-03-01T04:17:18.579Z,68.53
2018-03-01T04:19:49.819Z,68.00
2018-03-01T04:22:23.118Z,75.97
2018-03-01T04:24:54.398Z,64.80
2018-03-01T04:27:25.780Z,70.12
2018-03-01T04:29:58.220Z,72.78
2018-03-01T04:32:30.526Z,76.95
2018-03-01T04:35:01.150Z,68.80
2018-03-01T04:37:31.718Z,60.70
2018-03-01T04:40:03.374Z,66.97
2018-03-01T04:42:35.000Z,66.97
2018-03-01T04:45:07.431Z,68.12
2018-03-01T04:47:38.396Z,62.67
2018-03-01T04:50:08.921Z,64.47
2018-03-01T04:52:41.088Z,68.50
2018-03-01T04:55:14.863Z,64.72
2018-03-01T04:58:00.203Z,71.20
2018-03-01T05:00:34.454Z,64.07
2018-03-01T05:03:04.780Z,73.55
2018-03-01T05:05:34.932Z,62.95
2018-03-01T05:08:05.323Z,63.38
2018-03-01T05:10:42.916Z,69.10
2018-03-01T05:13:17.280Z,58.85
2018-03-01T05:15:48.245Z,62.10
2018-03-01T05:18:18.387Z,75.40
2018-03-01T05:20:49.514Z,61.30
2018-03-01T05:23:19.816Z,67.47
2018-03-01T05:25:50.383Z,68.77
2018-03-01T05:28:20.616Z,72.07
2018-03-01T05:30:50.790Z,65.70
2018-03-01T05:33:22.315Z,68.47
2018-03-01T05:35:52.791Z,71.65
2018-03-01T05:38:23.328Z,61.88
2018-03-01T05:41:05.928Z,67.03
2018-03-01T05:43:37.430Z,70.65
2018-03-01T05:46:14.446Z,63.20
2018-03-01T05:48:45.289Z,66.10
2018-03-01T05:51:20.100Z,71.27
2018-03-01T05:53:50.269Z,66.15
2018-03-01T05:56:20.621Z,64.22
2018-03-01T05:58:55.746Z,71.37
2018-03-01T06:01:27.199Z,79.05
2018-03-01T06:03:58.472Z,62.85
2018-03-01T06:06:29.826Z,62.90
2018-03-01T06:09:03.519Z,68.60
2018-03-01T06:11:36.042Z,77.32
2018-03-01T06:14:08.578Z,61.20
2018-03-01T06:16:40.474Z,67.65
2018-03-01T06:19:11.026Z,62.28
2018-03-01T06:21:41.491Z,62.22
2018-03-01T06:34:52.707Z,62.03
2018-03-01T06:37:26.759Z,67.50
2018-03-01T06:39:58.416Z,58.35
2018-03-01T06:42:30.180Z,60.60
2018-03-01T06:45:02.135Z,54.20
2018-03-01T06:47:37.857Z,62.85
2018-03-01T06:50:17.987Z,62.38
2018-03-01T06:52:48.914Z,58.80
2018-03-01T06:55:29.213Z,63.15
2018-03-01T06:58:02.956Z,58.60
2018-03-01T07:00:55.511Z,59.67
2018-03-01T07:03:30.347Z,54.45
2018-03-01T07:06:12.714Z,56.20
2018-03-01T07:09:31.052Z,58.17
2018-03-01T07:12:03.321Z,61.60
2018-03-01T07:14:48.295Z,59.80
2018-03-01T07:17:19.559Z,66.87
2018-03-01T07:19:50.722Z,66.78
2018-03-01T07:22:32.415Z,60.75
2018-03-01T07:25:04.000Z,76.78
2018-03-01T07:27:39.823Z,62.67
2018-03-01T07:30:11.483Z,68.78
2018-03-01T07:32:42.274Z,59.40
2018-03-01T07:35:13.778Z,58.63
2018-03-01T07:37:44.516Z,63.45
2018-03-01T07:40:16.239Z,62.03
2018-03-01T07:42:46.392Z,64.75
2018-03-01T07:45:16.865Z,60.25
2018-03-01T07:47:47.287Z,67.72
2018-03-01T07:50:22.022Z,58.97
2018-03-01T07:52:52.708Z,56.50
2018-03-01T07:55:25.411Z,57.35
2018-03-01T07:58:00.875Z,54.85
2018-03-01T08:00:33.595Z,59.60
2018-03-01T08:03:09.625Z,68.05
2018-03-01T08:05:40.275Z,58.53
2018-03-01T08:08:10.794Z,55.65
2018-03-01T08:10:53.087Z,69.60
2018-03-01T08:13:23.276Z,73.03
2018-03-01T08:15:53.430Z,62.45
2018-03-01T08:18:24.329Z,65.68
2018-03-01T08:20:54.568Z,67.07
2018-03-01T08:23:25.663Z,62.47
2018-03-01T08:26:10.530Z,67.12
2018-03-01T08:28:42.042Z,70.95
2018-03-01T08:31:14.959Z,71.57
2018-03-01T08:33:47.763Z,67.43
2018-03-01T08:36:18.111Z,69.03
2018-03-01T08:38:48.344Z,59.03
2018-03-01T08:41:19.260Z,59.20
2018-03-01T08:43:51.047Z,64.18
2018-03-01T08:49:08.462Z,68.82
2018-03-01T08:51:55.007Z,63.72
2018-03-01T08:54:27.903Z,59.58
2018-03-01T08:56:58.606Z,60.97
2018-03-01T08:59:33.258Z,53.67
2018-03-01T09:02:03.657Z,57.30
2018-03-01T09:04:35.761Z,56.35
2018-03-01T09:07:08.376Z,62.10
2018-03-01T09:09:54.729Z,61.13
2018-03-01T09:12:26.548Z,60.53
2018-03-01T09:14:57.007Z,60.65
2018-03-01T09:17:29.470Z,60.43
2018-03-01T09:20:01.373Z,60.08
2018-03-01T09:22:32.080Z,61.58
2018-03-01T09:25:03.039Z,64.07
2018-03-01T09:30:26.655Z,61.23
2018-03-01T09:33:12.437Z,58.85
2018-03-01T09:35:44.577Z,54.67
2018-03-01T09:41:42.797Z,59.45
2018-03-01T09:44:35.707Z,59.95
2018-03-01T09:47:13.290Z,61.03
2018-03-01T09:49:44.048Z,72.07
2018-03-01T09:52:39.504Z,74.50
2018-03-01T09:55:25.680Z,60.33
2018-03-01T09:57:56.431Z,62.92
2018-03-01T10:00:26.738Z,63.10
2018-03-01T10:02:58.794Z,69.33
2018-03-01T10:05:29.683Z,67.67
2018-03-01T10:08:02.493Z,61.33
2018-03-01T10:10:35.160Z,65.95
2018-03-01T10:13:05.474Z,69.13
2018-03-01T10:15:36.587Z,65.68
2018-03-01T10:18:13.101Z,68.53
2018-03-01T10:20:55.933Z,67.87
2018-03-01T10:23:38.779Z,62.67
2018-03-01T10:27:00.261Z,61.57
2018-03-01T10:33:49.725Z,65.97
2018-03-01T10:36:23.006Z,69.87
2018-03-01T10:38:56.167Z,74.80
2018-03-01T10:41:45.288Z,73.32
2018-03-01T10:44:22.412Z,63.97
2018-03-01T10:46:53.170Z,70.80
2018-03-01T10:49:23.387Z,65.57
2018-03-01T10:51:54.855Z,58.00
2018-03-01T10:54:25.124Z,72.37
2018-03-01T10:59:49.183Z,64.62
2018-03-01T11:02:29.298Z,58.45
2018-03-01T11:05:14.847Z,64.50
2018-03-01T11:12:56.343Z,57.00
2018-03-01T11:15:28.235Z,67.57
2018-03-01T11:18:01.820Z,64.57
2018-03-01T11:20:34.418Z,65.78
2018-03-01T11:23:05.656Z,62.35
2018-03-01T11:25:41.979Z,65.93
2018-03-01T11:28:19.287Z,72.12
2018-03-01T11:34:08.286Z,67.93
2018-03-01T11:36:39.191Z,61.92
2018-03-01T11:39:09.583Z,67.17
2018-03-01T11:41:40.944Z,65.57
2018-03-01T11:44:35.648Z,70.75
2018-03-01T11:47:18.956Z,63.25
2018-03-01T11:49:55.425Z,63.57
2018-03-01T11:52:33.378Z,67.30
2018-03-01T11:55:15.300Z,69.77
2018-03-01T11:57:46.438Z,58.20
2018-03-01T12:00:18.430Z,65.00
2018-03-01T12:02:49.980Z,63.67
2018-03-01T12:05:27.920Z,60.65
2018-03-01T12:08:10.727Z,62.47
2018-03-01T12:10:51.214Z,58.47
2018-03-01T12:13:25.819Z,63.63
2018-03-01T12:15:56.990Z,66.03
2018-03-01T12:18:31.662Z,58.10
2018-03-01T12:21:07.172Z,63.05
2018-03-01T12:23:39.471Z,57.05
2018-03-01T12:26:11.545Z,67.97
2018-03-01T12:28:42.897Z,62.58
2018-03-01T12:31:20.929Z,68.30
2018-03-01T12:34:04.844Z,64.65
2018-03-01T12:36:41.037Z,63.10
2018-03-01T12:39:18.489Z,62.45
2018-03-01T12:41:50.741Z,63.05
2018-03-01T12:44:21.232Z,67.30
2018-03-01T12:46:52.828Z,58.73
2018-03-01T12:49:23.998Z,59.63
2018-03-01T12:51:54.274Z,63.50
2018-03-01T12:54:26.493Z,60.20
2018-03-01T12:56:58.259Z,65.25
2018-03-01T12:59:35.934Z,59.13
2018-03-01T13:02:07.203Z,69.68
2018-03-01T13:04:37.891Z,60.00
2018-03-01T13:07:09.434Z,65.40
2018-03-01T13:09:39.681Z,52.00
2018-03-01T13:12:11.619Z,66.22
2018-03-01T13:18:14.250Z,62.90
2018-03-01T13:20:45.003Z,59.08
2018-03-01T13:23:24.897Z,61.50
2018-03-01T13:25:57.133Z,60.40
2018-03-01T13:28:30.265Z,63.53
2018-03-01T13:31:03.552Z,62.85
2018-03-01T13:33:36.105Z,57.62
2018-03-01T13:36:08.603Z,57.45
2018-03-01T13:38:41.995Z,56.58
2018-03-01T13:41:12.363Z,55.20
2018-03-01T13:43:43.075Z,55.00
2018-03-01T13:49:50.823Z,60.08
2018-03-01T13:52:26.131Z,58.78
2018-03-01T13:55:01.375Z,56.93
2018-03-01T14:01:22.971Z,59.05
2018-03-01T14:03:55.391Z,62.78
2018-03-01T14:06:28.763Z,58.10
2018-03-01T14:09:01.427Z,60.58
2018-03-01T14:11:55.400Z,57.30
2018-03-01T14:14:28.163Z,63.10
2018-03-01T14:17:07.541Z,57.23
2018-03-01T14:19:40.248Z,58.30
2018-03-01T14:22:29.031Z,59.63
2018-03-01T14:28:36.182Z,60.60
2018-03-01T14:31:15.767Z,54.88
2018-03-01T14:36:47.494Z,55.83
2018-03-01T14:43:23.715Z,61.27
2018-03-01T14:45:57.802Z,61.97
2018-03-01T14:59:28.233Z,60.33
2018-03-01T15:05:03.563Z,55.95
2018-03-01T15:07:46.094Z,60.57
2018-03-01T15:10:33.269Z,59.03
2018-03-01T15:13:15.637Z,56.33
2018-03-01T15:22:19.840Z,62.17
2018-03-01T15:25:04.412Z,62.87
2018-03-01T15:27:38.938Z,57.73
2018-03-01T15:33:07.060Z,63.17
2018-03-01T15:39:20.379Z,57.88
2018-03-01T15:46:06.164Z,62.65
2018-03-01T15:48:37.878Z,57.10
2018-03-01T15:54:49.494Z,54.30
2018-03-01T15:57:21.568Z,55.40
2018-03-01T16:00:05.468Z,61.85
2018-03-01T16:02:36.905Z,55.30
2018-03-01T16:05:07.060Z,55.15
2018-03-01T16:07:39.280Z,52.28
2018-03-01T16:10:38.281Z,61.78
2018-03-01T16:13:10.963Z,58.45
2018-03-01T16:15:42.459Z,60.08
2018-03-01T16:18:12.750Z,57.28
2018-03-01T16:20:44.222Z,52.92
2018-03-01T16:23:14.842Z,61.35
2018-03-01T16:25:47.163Z,57.13
2018-03-01T16:28:39.112Z,63.30
2018-03-01T16:34:54.287Z,61.20
2018-03-01T16:37:26.488Z,56.47
2018-03-01T16:43:02.419Z,62.62
2018-03-01T16:45:33.926Z,65.97
2018-03-01T16:48:05.052Z,56.70
2018-03-01T16:50:36.848Z,63.15
2018-03-01T16:53:17.858Z,60.33
2018-03-01T16:55:52.029Z,62.92
2018-03-01T16:58:26.315Z,65.55
2018-03-01T17:00:57.140Z,68.35
2018-03-01T17:03:39.640Z,76.35
2018-03-01T17:10:16.148Z,61.10
2018-03-01T17:13:03.759Z,58.28
2018-03-01T17:15:37.493Z,66.13
2018-03-01T17:18:37.994Z,64.60
2018-03-01T17:21:18.986Z,63.80
2018-03-01T17:24:34.570Z,69.82
2018-03-01T17:28:24.570Z,64.57
2018-03-01T17:31:00.220Z,71.75
2018-03-01T17:34:14.230Z,64.67
2018-03-01T17:37:31.031Z,67.20
2018-03-01T17:40:12.551Z,74.60
2018-03-01T17:42:46.776Z,69.00
2018-03-01T17:46:08.466Z,66.12
2018-03-01T17:49:13.680Z,72.20
2018-03-01T17:55:16.705Z,62.70
2018-03-01T17:58:02.409Z,62.20
2018-03-01T18:00:37.854Z,68.37
2018-03-01T18:03:14.928Z,63.72
2018-03-01T18:05:57.372Z,62.97
2018-03-01T18:08:29.576Z,64.60
2018-03-01T18:11:08.882Z,64.30
2018-03-01T18:13:39.107Z,70.32
2018-03-01T18:16:09.733Z,71.65
2018-03-01T18:18:43.577Z,64.63
2018-03-01T18:21:14.423Z,63.15
2018-03-01T18:23:49.584Z,63.90
2018-03-01T18:26:20.639Z,66.47
2018-03-01T18:28:52.468Z,72.03
2018-03-01T18:31:26.476Z,62.70
2018-03-01T18:33:56.947Z,73.30
2018-03-01T18:36:27.622Z,63.87
2018-03-01T18:38:57.842Z,75.30
2018-03-01T18:41:34.075Z,76.82
2018-03-01T18:44:13.398Z,89.30
2018-03-01T18:46:44.034Z,65.12
2018-03-01T18:49:15.073Z,79.80
2018-03-01T18:51:45.351Z,74.50
2018-03-01T18:54:16.645Z,66.60
2018-03-01T18:56:49.303Z,77.27
2018-03-01T18:59:19.510Z,68.03
2018-03-01T19:01:51.062Z,68.55
2018-03-01T19:04:28.982Z,69.65
2018-03-01T19:07:03.035Z,69.35
2018-03-01T19:09:33.166Z,77.60
2018-03-01T19:12:04.027Z,78.85
2018-03-01T19:14:34.808Z,70.85
2018-03-01T19:17:06.058Z,70.25
2018-03-01T19:19:36.477Z,67.80
2018-03-01T19:22:06.816Z,74.32
2018-03-01T19:24:37.214Z,72.20
2018-03-01T19:27:08.442Z,74.37
2018-03-01T19:29:38.811Z,68.40
2018-03-01T19:32:09.293Z,66.70
2018-03-01T19:34:39.785Z,72.10
2018-03-01T19:37:10.999Z,72.12
2018-03-01T19:39:41.442Z,78.68
2018-03-01T19:42:12.487Z,80.43
2018-03-01T19:44:43.596Z,70.47
2018-03-01T19:47:14.761Z,66.17
2018-03-01T19:50:48.347Z,65.10
2018-03-01T19:53:18.885Z,73.97
2018-03-01T19:55:49.500Z,76.62
2018-03-01T19:58:19.928Z,79.82
2018-03-01T20:00:57.801Z,74.43
2018-03-01T20:03:29.910Z,72.18
2018-03-01T20:06:01.248Z,70.97
2018-03-01T20:08:32.036Z,82.70
2018-03-01T20:11:02.191Z,82.53
2018-03-01T20:13:33.156Z,79.07
2018-03-01T20:16:04.443Z,75.50
2018-03-01T20:18:35.114Z,72.65
2018-03-01T20:21:10.560Z,76.33
2018-03-01T20:23:43.064Z,70.32
2018-03-01T20:26:14.172Z,74.13
2018-03-01T20:28:45.238Z,73.95
2018-03-01T20:31:17.377Z,76.10
2018-03-01T20:33:47.963Z,68.10
2018-03-01T20:36:18.990Z,77.50
2018-03-01T20:38:50.360Z,64.57
2018-03-01T20:41:23.861Z,66.60
2018-03-01T20:43:54.339Z,72.57
2018-03-01T20:46:24.591Z,69.33
2018-03-01T20:48:57.791Z,69.82
2018-03-01T20:51:29.168Z,62.23
2018-03-01T20:54:02.921Z,70.37
2018-03-01T20:56:33.584Z,75.00
2018-03-01T20:59:04.091Z,68.90
2018-03-01T21:01:34.174Z,75.85
2018-03-01T21:04:04.282Z,73.47
2018-03-01T21:06:34.419Z,72.87
2018-03-01T21:09:04.670Z,71.80
2018-03-01T21:11:35.545Z,68.95
2018-03-01T21:14:06.289Z,68.07
2018-03-01T21:16:36.456Z,69.43
2018-03-01T21:19:06.529Z,65.22
2018-03-01T21:21:36.875Z,61.23
2018-03-01T21:24:06.960Z,77.60
2018-03-01T21:26:37.587Z,75.57
2018-03-01T21:29:08.171Z,73.05
2018-03-01T21:31:38.579Z,68.68
2018-03-01T21:34:08.720Z,69.68
2018-03-01T21:36:39.590Z,78.40
2018-03-01T21:39:11.393Z,68.62
2018-03-01T21:41:41.866Z,72.97
2018-03-01T21:44:12.463Z,76.10
2018-03-01T21:46:51.411Z,75.50
2018-03-01T21:49:22.341Z,71.93
2018-03-01T21:51:52.919Z,77.50
2018-03-01T21:54:23.594Z,77.93
2018-03-01T21:56:55.047Z,86.15
2018-03-01T21:59:25.214Z,84.13
2018-03-01T22:01:56.516Z,77.70
2018-03-01T22:04:27.351Z,82.22
2018-03-01T22:06:57.835Z,76.73
2018-03-01T22:09:29.434Z,90.47
2018-03-01T22:11:59.644Z,89.68
2018-03-01T22:14:30.625Z,82.20
2018-03-01T22:17:01.947Z,80.47
2018-03-01T22:19:32.075Z,85.28
2018-03-01T22:22:02.290Z,85.90
2018-03-01T22:24:33.686Z,81.20
2018-03-01T22:27:04.207Z,86.85
2018-03-01T22:29:34.451Z,89.82
2018-03-01T22:32:05.038Z,79.78
2018-03-01T22:34:42.487Z,85.45
2018-03-01T22:37:15.418Z,86.10
2018-03-01T22:39:48.013Z,81.35
2018-03-01T22:42:20.162Z,77.57
2018-03-01T22:44:51.065Z,75.10
2018-03-01T22:47:22.438Z,83.33
2018-03-01T22:49:56.538Z,90.00
2018-03-01T22:52:27.571Z,85.67
2018-03-01T22:54:58.736Z,85.73
2018-03-01T22:57:29.088Z,95.20
2018-03-01T22:59:59.631Z,79.73
2018-03-01T23:02:30.494Z,80.82
2018-03-01T23:05:01.230Z,85.63
2018-03-01T23:07:31.457Z,84.97
2018-03-01T23:10:01.775Z,78.75
2018-03-01T23:12:33.753Z,76.12
2018-03-01T23:15:03.854Z,76.97
2018-03-01T23:17:34.755Z,75.82
2018-03-01T23:20:04.911Z,80.32
2018-03-01T23:22:34.993Z,75.28
2018-03-01T23:25:05.063Z,95.53
2018-03-01T23:27:35.195Z,95.65
2018-03-01T23:30:05.371Z,88.72
2018-03-01T23:32:35.501Z,92.75
2018-03-01T23:35:05.573Z,90.97
2018-03-01T23:37:36.967Z,87.97
2018-03-01T23:40:07.077Z,90.70
2018-03-01T23:42:37.612Z,84.40
2018-03-01T23:45:07.736Z,90.35
2018-03-01T23:47:37.878Z,79.97
2018-03-01T23:50:08.060Z,82.28
2018-03-01T23:52:39.230Z,83.72
2018-03-01T23:55:09.856Z,92.22
2018-03-01T23:57:40.275Z,80.32
